Time;durP1;ratioP1;P1;durP2;ratioP2;P2;SDS_P1;SDS_P2;PMS_P1;PMS_P2;Temp;Humidity;BMP_temperature;BMP_pressure;BME280_temperature;BME280_humidity;BME280_pressure;Samples;Min_cycle;Max_cycle;Signal;HPM_P1;HPM_P2
2024/01/28 00:04:26;;;;;;;42.27;19.90;;;;;;;-1.47;nan;103321.50;10302786;28;20046;-87
2024/01/28 00:09:27;;;;;;;40.50;19.07;;;;;;;-1.44;nan;103312.28;10297957;28;20046;-83
2024/01/28 00:14:27;;;;;;;37.20;19.37;;;;;;;-1.45;nan;103305.16;10315356;28;20035;-87
2024/01/28 00:19:28;;;;;;;43.13;18.97;;;;;;;-1.55;nan;103293.31;10318164;28;20038;-87
2024/01/28 00:24:28;;;;;;;39.83;19.02;;;;;;;-1.45;nan;103300.63;10307780;28;20073;-87
2024/01/28 00:29:29;;;;;;;38.27;18.67;;;;;;;-1.40;nan;103292.16;10293726;28;20518;-87
2024/01/28 00:34:29;;;;;;;36.20;20.77;;;;;;;-1.42;nan;103281.47;10310690;28;20049;-87
2024/01/28 00:39:30;;;;;;;36.30;19.77;;;;;;;-1.46;nan;103271.88;10295479;28;20039;-86
2024/01/28 00:44:33;;;;;;;40.70;19.07;;;;;;;-1.49;nan;103279.34;10310943;28;20045;-76
2024/01/28 00:49:34;;;;;;;34.33;18.93;;;;;;;-1.57;nan;103273.66;10299497;28;20048;-87
2024/01/28 00:54:34;;;;;;;34.20;18.47;;;;;;;-1.68;nan;103271.75;10314729;28;20045;-86
2024/01/28 00:59:35;;;;;;;35.47;18.17;;;;;;;-1.67;nan;103284.31;10304966;28;20096;-87
2024/01/28 01:04:35;;;;;;;42.83;19.37;;;;;;;-1.72;nan;103270.25;10310844;28;20044;-85
2024/01/28 01:09:36;;;;;;;38.00;19.80;;;;;;;-1.74;nan;103269.50;10315657;28;20795;-86
2024/01/28 01:14:37;;;;;;;37.07;19.63;;;;;;;-1.71;nan;103269.31;10319092;28;20485;-87
2024/01/28 01:19:38;;;;;;;35.67;18.93;;;;;;;-1.77;nan;103262.50;10313327;28;20049;-87
2024/01/28 01:24:38;;;;;;;36.57;18.67;;;;;;;-1.71;nan;103263.91;10314755;28;20038;-87
2024/01/28 01:29:38;;;;;;;44.07;18.33;;;;;;;-1.67;nan;103252.75;10303050;28;20480;-87
2024/01/28 01:34:39;;;;;;;44.70;20.00;;;;;;;-1.71;nan;103235.03;10333329;28;20466;-87
2024/01/28 01:39:39;;;;;;;43.27;19.43;;;;;;;-1.59;nan;103238.66;10289853;28;20565;-87
2024/01/28 01:44:40;;;;;;;43.20;19.33;;;;;;;-1.58;nan;103229.56;10289549;28;20517;-75
2024/01/28 01:49:40;;;;;;;41.20;20.80;;;;;;;-1.54;nan;103228.38;10292014;28;20475;-86
2024/01/28 01:54:41;;;;;;;39.63;18.80;;;;;;;-1.40;nan;103234.56;10322366;28;20038;-86
2024/01/28 01:59:41;;;;;;;35.93;18.47;;;;;;;-1.36;nan;103231.50;10321023;28;20046;-87
2024/01/28 02:04:43;;;;;;;42.03;18.60;;;;;;;-1.38;nan;103221.81;10309580;28;20049;-87
2024/01/28 02:09:44;;;;;;;39.40;20.87;;;;;;;-1.36;nan;103206.34;10320389;28;20038;-87
2024/01/28 02:14:46;;;;;;;37.42;19.70;;;;;;;-1.30;nan;103197.72;10305202;28;20034;-87
2024/01/28 02:19:46;;;;;;;40.67;19.27;;;;;;;-1.39;nan;103168.72;10323412;28;20415;-86
2024/01/28 02:24:46;;;;;;;37.40;20.27;;;;;;;-1.31;nan;103166.28;10334442;28;20043;-87
2024/01/28 02:29:47;;;;;;;48.90;25.20;;;;;;;-1.17;nan;103168.78;10299045;28;20045;-87
2024/01/28 02:34:47;;;;;;;42.67;24.27;;;;;;;-1.05;nan;103173.22;10304488;28;20035;-87
2024/01/28 02:39:48;;;;;;;43.03;22.13;;;;;;;-0.99;nan;103165.59;10303945;28;20049;-85
2024/01/28 02:44:48;;;;;;;55.23;22.00;;;;;;;-0.95;nan;103167.06;10322739;28;20046;-87
2024/01/28 02:49:49;;;;;;;56.30;22.90;;;;;;;-0.98;nan;103164.63;10289056;28;20085;-86
2024/01/28 02:54:49;;;;;;;49.07;22.73;;;;;;;-0.84;nan;103165.22;10313622;28;20149;-86
2024/01/28 02:59:50;;;;;;;42.05;22.13;;;;;;;-0.81;nan;103153.31;10297784;28;20050;-87
2024/01/28 03:04:51;;;;;;;54.47;23.23;;;;;;;-0.85;nan;103133.78;10315724;28;20039;-86
2024/01/28 03:09:51;;;;;;;35.70;20.20;;;;;;;-0.80;nan;103144.22;10308108;28;20110;-87
2024/01/28 03:14:52;;;;;;;38.10;22.45;;;;;;;-0.75;nan;103147.41;10298469;28;20039;-86
2024/01/28 03:19:53;;;;;;;47.40;23.73;;;;;;;-0.65;nan;103140.25;10251493;28;1103340;-87
2024/01/28 03:24:53;;;;;;;50.05;23.30;;;;;;;-0.59;nan;103140.75;10319220;28;20074;-86
2024/01/28 03:29:54;;;;;;;35.60;21.27;;;;;;;-0.52;nan;103131.16;10308704;28;20051;-87
2024/01/28 03:34:54;;;;;;;47.80;21.40;;;;;;;-0.60;nan;103110.13;10320731;28;20050;-87
2024/01/28 03:39:54;;;;;;;47.37;23.17;;;;;;;-0.63;nan;103104.97;10294618;28;20039;-87
2024/01/28 03:44:55;;;;;;;39.28;19.42;;;;;;;-0.68;nan;103094.53;10311961;28;20035;-87
2024/01/28 03:49:55;;;;;;;39.20;20.27;;;;;;;-0.61;nan;103105.72;10295642;28;20039;-88
2024/01/28 03:54:56;;;;;;;40.83;19.17;;;;;;;-0.66;nan;103097.97;10323707;28;20035;-87
2024/01/28 03:59:57;;;;;;;36.00;19.30;;;;;;;-0.73;nan;103099.44;10290656;28;20235;-87
2024/01/28 04:04:57;;;;;;;42.43;19.70;;;;;;;-0.72;nan;103106.59;10291544;28;20042;-87
2024/01/28 04:09:58;;;;;;;37.75;17.73;;;;;;;-0.73;nan;103112.13;10290168;28;20037;-86
2024/01/28 04:14:58;;;;;;;33.53;18.07;;;;;;;-0.75;nan;103109.53;10314850;28;20046;-87
2024/01/28 04:19:58;;;;;;;33.78;19.67;;;;;;;-0.84;nan;103118.41;10312887;28;20043;-88
2024/01/28 04:24:59;;;;;;;37.58;17.45;;;;;;;-0.87;nan;103110.53;10279388;28;20076;-87
2024/01/28 04:30:00;;;;;;;40.87;18.07;;;;;;;-0.91;nan;103115.34;10330721;28;20042;-88
2024/01/28 04:35:00;;;;;;;32.53;16.20;;;;;;;-1.03;nan;103119.88;10330452;28;20034;-87
2024/01/28 04:40:00;;;;;;;27.97;18.27;;;;;;;-1.21;nan;103102.41;10322748;28;20039;-87
2024/01/28 04:45:02;;;;;;;28.47;16.83;;;;;;;-1.30;nan;103109.44;10300234;28;20042;-88
2024/01/28 04:50:04;;;;;;;35.33;16.97;;;;;;;-1.40;nan;103097.63;10316863;28;20098;-87
2024/01/28 04:55:05;;;;;;;36.33;16.93;;;;;;;-147.32;100.00;65238.50;10271354;28;20043;-88
2024/01/28 05:00:10;;;;;;;31.23;16.50;;;;;;;20.56;nan;69798.59;10305078;28;20051;-87
2024/01/28 05:05:11;;;;;;;41.45;18.13;;;;;;;-1.91;nan;103055.63;10307496;28;20054;-88
2024/01/28 05:10:12;;;;;;;33.03;19.53;;;;;;;-1.84;nan;103029.91;10308781;28;20030;-86
2024/01/28 05:15:19;;;;;;;39.37;19.17;;;;;;;-147.32;100.00;65238.50;10300534;28;20035;-87
2024/01/28 05:20:20;;;;;;;41.20;21.20;;;;;;;-1.74;nan;103056.16;10311033;28;20590;-87
2024/01/28 05:25:20;;;;;;;41.97;18.90;;;;;;;-1.66;nan;103053.72;10311701;28;20093;-86
2024/01/28 05:30:21;;;;;;;37.70;20.00;;;;;;;-1.65;nan;103061.72;10318288;28;20039;-86
2024/01/28 05:35:21;;;;;;;40.03;20.40;;;;;;;-1.73;nan;103058.75;10311785;28;20042;-86
2024/01/28 05:40:23;;;;;;;43.23;19.97;;;;;;;-1.66;nan;103060.00;10296882;28;20050;-85
2024/01/28 05:45:23;;;;;;;44.73;22.00;;;;;;;-1.63;nan;103054.34;10313090;28;20043;-85
2024/01/28 05:50:23;;;;;;;44.13;21.63;;;;;;;-1.62;nan;103050.66;10292022;28;20039;-85
2024/01/28 05:55:24;;;;;;;31.20;20.63;;;;;;;-1.64;nan;103051.78;10310784;28;20038;-86
2024/01/28 06:00:24;;;;;;;43.27;18.87;;;;;;;-1.70;nan;103038.75;10289262;28;20041;-74
2024/01/28 06:05:25;;;;;;;40.47;21.57;;;;;;;-2.41;nan;102927.34;10316685;28;20065;-85
2024/01/28 06:10:26;;;;;;;33.10;20.00;;;;;;;-1.89;nan;102998.84;10301565;28;20047;-86
2024/01/28 06:15:27;;;;;;;34.20;20.25;;;;;;;-1.77;nan;103032.97;10311686;28;20050;-85
2024/01/28 06:20:27;;;;;;;38.97;19.57;;;;;;;-1.85;nan;103022.75;10310254;28;20094;-85
2024/01/28 06:25:28;;;;;;;40.57;21.67;;;;;;;-1.93;nan;102883.97;10311549;28;20078;-85
2024/01/28 06:30:32;;;;;;;42.53;19.73;;;;;;;-1.99;nan;103027.53;10328690;28;20042;-85
2024/01/28 06:35:32;;;;;;;42.83;21.30;;;;;;;-2.01;nan;103003.34;10304947;28;20044;-85
2024/01/28 06:40:33;;;;;;;40.17;19.47;;;;;;;-147.32;100.00;65238.50;10318238;28;20049;-84
2024/01/28 06:45:33;;;;;;;42.27;19.83;;;;;;;-2.14;nan;103032.28;10316386;28;20045;-85
2024/01/28 06:50:33;;;;;;;37.30;20.43;;;;;;;-2.11;nan;102991.53;10315015;28;20038;-85
2024/01/28 06:55:34;;;;;;;35.33;20.13;;;;;;;-2.24;nan;102981.69;10310693;28;20043;-84
2024/01/28 07:00:35;;;;;;;45.13;20.47;;;;;;;-147.32;100.00;65238.50;10313363;28;20065;-85
2024/01/28 07:05:35;;;;;;;41.67;20.43;;;;;;;-147.32;100.00;65238.50;10326964;28;20058;-84
2024/01/28 07:10:36;;;;;;;35.93;18.20;;;;;;;-147.32;100.00;65238.50;10311278;28;20047;-84
2024/01/28 07:15:37;;;;;;;33.57;19.77;;;;;;;-147.32;100.00;65238.50;10297579;28;20030;-85
2024/01/28 07:20:37;;;;;;;28.17;18.30;;;;;;;-147.32;100.00;65238.50;10299729;28;20038;-84
2024/01/28 07:25:38;;;;;;;35.33;18.40;;;;;;;-147.32;100.00;65238.50;10316107;28;20039;-84
2024/01/28 07:30:38;;;;;;;32.00;17.67;;;;;;;-147.32;100.00;65238.50;10300116;28;20046;-84
2024/01/28 07:35:39;;;;;;;28.80;15.97;;;;;;;-147.32;100.00;65238.50;10285881;28;20039;-84
2024/01/28 07:40:39;;;;;;;29.53;17.30;;;;;;;-147.32;100.00;75170.38;10315361;28;20035;-83
2024/01/28 07:45:42;;;;;;;26.07;15.63;;;;;;;20.56;nan;69798.59;10281400;28;20046;-84
2024/01/28 07:50:42;;;;;;;33.43;15.77;;;;;;;-147.32;100.00;86276.84;10317903;28;20046;-83
2024/01/28 07:55:43;;;;;;;34.10;18.13;;;;;;;-147.32;100.00;86276.84;10328711;28;20031;-82
2024/01/28 08:00:43;;;;;;;30.60;17.07;;;;;;;-147.32;100.00;65238.50;10296689;28;20434;-83
2024/01/28 08:05:44;;;;;;;26.80;15.03;;;;;;;-147.32;100.00;86276.84;10301851;28;20039;-83
2024/01/28 08:10:44;;;;;;;33.37;14.47;;;;;;;-147.32;100.00;75170.38;10317326;28;20038;-82
2024/01/28 08:15:45;;;;;;;28.27;14.83;;;;;;;-147.32;100.00;86276.84;10315987;28;20034;-83
2024/01/28 08:20:46;;;;;;;27.03;13.80;;;;;;;-147.32;100.00;65238.50;10302334;28;20038;-82
2024/01/28 08:25:46;;;;;;;24.23;14.33;;;;;;;-147.32;100.00;65238.50;10315761;28;20075;-83
2024/01/28 08:30:47;;;;;;;25.90;12.90;;;;;;;-147.32;100.00;65238.50;10309806;28;20045;-83
2024/01/28 08:35:48;;;;;;;24.57;13.87;;;;;;;20.56;nan;69798.59;10296683;28;20054;-82
2024/01/28 08:40:48;;;;;;;29.97;13.90;;;;;;;-147.32;100.00;65238.50;10281075;28;20122;-82
2024/01/28 08:45:49;;;;;;;27.47;12.23;;;;;;;-147.32;100.00;65238.50;10316994;28;20035;-83
2024/01/28 08:50:50;;;;;;;23.60;12.30;;;;;;;-147.32;100.00;65238.50;10301512;28;20049;-83
2024/01/28 08:55:50;;;;;;;29.53;11.07;;;;;;;-147.32;100.00;65238.50;10317750;28;20039;-83
2024/01/28 09:00:50;;;;;;;19.77;10.00;;;;;;;-147.32;100.00;65238.50;10297418;28;20050;-82
2024/01/28 09:05:51;;;;;;;21.03;9.63;;;;;;;-147.32;100.00;65238.50;10289762;28;20038;-82
2024/01/28 09:10:51;;;;;;;16.07;9.73;;;;;;;-147.32;100.00;65238.50;10302555;28;20042;-82
2024/01/28 09:15:53;;;;;;;17.77;9.60;;;;;;;-147.32;100.00;65238.50;10310898;28;20051;-83
2024/01/28 09:20:53;;;;;;;18.37;7.97;;;;;;;-147.32;100.00;65238.50;10313094;28;20080;-83
2024/01/28 09:25:54;;;;;;;22.70;10.10;;;;;;;-147.32;100.00;65238.50;10293891;28;20391;-83
2024/01/28 09:30:54;;;;;;;22.40;10.38;;;;;;;-147.32;100.00;65238.50;10314934;28;20035;-84
2024/01/28 09:35:55;;;;;;;13.33;6.93;;;;;;;-147.32;100.00;65238.50;10314160;28;20038;-83
2024/01/28 09:40:56;;;;;;;15.73;7.00;;;;;;;-147.32;100.00;65238.50;10322167;28;20054;-84
2024/01/28 09:45:58;;;;;;;13.70;5.97;;;;;;;20.56;100.00;65238.50;10296744;28;20034;-84
2024/01/28 09:50:58;;;;;;;20.13;6.60;;;;;;;-147.32;100.00;65238.50;10270002;28;20040;-84
2024/01/28 09:55:59;;;;;;;11.67;4.97;;;;;;;-147.32;100.00;65238.50;10316755;28;20038;-85
2024/01/28 10:00:59;;;;;;;10.45;5.15;;;;;;;20.56;100.00;65238.50;10310857;28;20039;-85
2024/01/28 10:06:00;;;;;;;20.83;5.40;;;;;;;-147.32;100.00;65238.50;10285648;28;20047;-76
2024/01/28 10:11:03;;;;;;;11.18;3.85;;;;;;;-147.32;100.00;65238.50;10314521;28;20130;-83
2024/01/28 10:16:04;;;;;;;8.13;3.20;;;;;;;-147.32;100.00;65238.50;10282488;28;20034;-84
2024/01/28 10:21:05;;;;;;;6.68;3.85;;;;;;;-147.32;100.00;65238.50;10304106;28;20127;-85
2024/01/28 10:26:06;;;;;;;10.10;3.72;;;;;;;20.56;nan;69798.59;10306195;28;20109;-85
2024/01/28 10:31:06;;;;;;;9.57;3.70;;;;;;;-147.32;100.00;75170.38;10298028;28;20039;-85
2024/01/28 10:36:08;;;;;;;8.88;3.28;;;;;;;4.10;nan;102888.78;10297067;28;20042;-85
2024/01/28 10:41:08;;;;;;;6.80;3.60;;;;;;;20.56;100.00;65238.50;10263019;28;20063;-86
2024/01/28 10:46:09;;;;;;;4.85;2.83;;;;;;;20.56;nan;69798.59;10297479;28;20035;-87
2024/01/28 10:51:09;;;;;;;9.82;3.53;;;;;;;-147.32;100.00;65238.50;10297293;28;20035;-89
2024/01/28 10:56:10;;;;;;;9.43;3.35;;;;;;;-147.32;100.00;86276.84;10318313;28;20047;-88
2024/01/28 11:01:11;;;;;;;6.55;3.33;;;;;;;20.56;100.00;65238.50;10290753;28;20063;-77
2024/01/28 11:06:16;;;;;;;5.45;2.97;;;;;;;-147.32;100.00;65238.50;10284793;28;20047;-88
2024/01/28 11:11:16;;;;;;;8.75;2.90;;;;;;;-147.32;100.00;65238.50;10304670;28;20043;-87
2024/01/28 11:16:19;;;;;;;6.65;3.00;;;;;;;20.56;nan;69798.59;10275149;28;20047;-87
2024/01/28 11:21:19;;;;;;;7.63;3.67;;;;;;;20.56;nan;69798.59;10282535;28;20182;-87
2024/01/28 11:26:20;;;;;;;5.63;2.80;;;;;;;-147.32;100.00;65238.50;10285168;28;20496;-86
2024/01/28 11:31:20;;;;;;;5.70;3.72;;;;;;;3.76;nan;102559.94;10302409;28;20042;-87
2024/01/28 11:36:26;;;;;;;9.15;3.95;;;;;;;4.11;nan;102538.81;10297948;28;20966;-87
2024/01/28 11:41:27;;;;;;;6.55;3.45;;;;;;;6.09;nan;102793.19;10281024;28;20298;-88
2024/01/28 11:46:27;;;;;;;5.70;2.70;;;;;;;6.41;nan;102779.38;10313693;28;20039;-87
2024/01/28 11:51:31;;;;;;;4.22;2.10;;;;;;;6.13;nan;102696.09;10285362;28;20035;-87
2024/01/28 11:56:32;;;;;;;3.97;2.13;;;;;;;6.84;nan;102749.66;10284573;28;20106;-87
2024/01/28 12:01:32;;;;;;;4.47;1.83;;;;;;;7.17;nan;102760.31;10299428;28;20064;-87
2024/01/28 12:06:33;;;;;;;4.93;2.22;;;;;;;7.39;nan;102752.22;10298761;28;21062;-89
2024/01/28 12:11:33;;;;;;;7.70;1.98;;;;;;;7.59;nan;102736.94;10308933;28;20093;-89
2024/01/28 12:16:34;;;;;;;7.63;2.13;;;;;;;;;;10315538;28;20050;-86
2024/01/28 12:21:34;;;;;;;4.72;1.83;;;;;;;7.64;nan;102739.09;10290694;28;20062;-88
2024/01/28 12:26:35;;;;;;;5.10;2.25;;;;;;;7.92;nan;102719.22;10314202;28;20073;-87
2024/01/28 12:31:35;;;;;;;5.15;1.55;;;;;;;8.19;nan;102702.03;10300772;28;20035;-86
2024/01/28 12:36:36;;;;;;;3.00;1.48;;;;;;;8.46;nan;102699.63;10290485;28;20491;-86
2024/01/28 12:41:37;;;;;;;6.75;1.85;;;;;;;8.68;nan;102692.22;10285906;28;20046;-87
2024/01/28 12:46:37;;;;;;;4.65;1.90;;;;;;;8.84;nan;102669.13;10294486;28;20070;-87
2024/01/28 12:51:38;;;;;;;3.50;1.90;;;;;;;9.01;nan;102659.56;10282567;28;20224;-86
2024/01/28 12:56:38;;;;;;;5.63;1.52;;;;;;;9.26;nan;102667.31;10322900;28;20030;-84
2024/01/28 13:01:39;;;;;;;9.38;1.25;;;;;;;9.37;nan;102632.94;10309249;28;20067;-86
2024/01/28 13:06:39;;;;;;;5.97;1.60;;;;;;;9.75;nan;102644.31;10302833;28;20066;-86
2024/01/28 13:11:41;;;;;;;5.60;1.52;;;;;;;9.97;nan;102622.16;10318904;28;20038;-84
2024/01/28 13:16:42;;;;;;;3.58;1.27;;;;;;;10.56;nan;102626.94;10312001;28;20105;-83
2024/01/28 13:21:42;;;;;;;4.72;2.42;;;;;;;11.14;nan;102625.41;10287279;28;20046;-84
2024/01/28 13:26:43;;;;;;;3.63;1.45;;;;;;;11.95;nan;102599.22;10306761;28;20059;-79
2024/01/28 13:31:44;;;;;;;2.00;1.17;;;;;;;12.76;nan;102592.88;10312505;28;20070;-85
2024/01/28 13:36:44;;;;;;;3.47;1.50;;;;;;;13.07;nan;102564.28;10308948;28;20061;-84
2024/01/28 13:41:44;;;;;;;5.97;1.58;;;;;;;13.50;nan;102568.06;10308398;28;20095;-86
2024/01/28 13:46:45;;;;;;;5.47;1.40;;;;;;;13.58;nan;102562.22;10329052;28;20046;-86
2024/01/28 13:51:45;;;;;;;2.97;1.40;;;;;;;12.65;nan;102566.84;10309265;28;20098;-85
2024/01/28 13:56:46;;;;;;;3.28;1.52;;;;;;;11.24;nan;102548.59;10276448;28;20411;-87
2024/01/28 14:01:46;;;;;;;3.63;1.33;;;;;;;10.05;nan;102517.41;10323190;28;20394;-85
2024/01/28 14:06:47;;;;;;;4.35;1.45;;;;;;;9.75;nan;102567.28;10306678;28;20035;-85
2024/01/28 14:11:48;;;;;;;2.85;1.20;;;;;;;9.29;nan;102557.81;10324185;28;20042;-86
2024/01/28 14:16:48;;;;;;;4.22;1.17;;;;;;;9.07;nan;102576.34;10315035;28;20047;-87
2024/01/28 14:21:49;;;;;;;5.70;1.52;;;;;;;8.97;nan;102570.34;10299179;28;20045;-86
2024/01/28 14:26:49;;;;;;;2.58;1.15;;;;;;;9.06;nan;102565.53;10311359;28;20540;-84
2024/01/28 14:31:50;;;;;;;4.03;1.20;;;;;;;9.02;nan;102551.34;10299306;28;20038;-85
2024/01/28 14:36:50;;;;;;;7.03;1.83;;;;;;;9.19;nan;102534.53;10321103;28;20050;-86
2024/01/28 14:41:50;;;;;;;3.40;1.67;;;;;;;9.48;nan;102547.13;10318397;28;20057;-87
2024/01/28 14:46:51;;;;;;;4.95;1.45;;;;;;;9.42;nan;102529.53;10307775;28;20034;-87
2024/01/28 14:51:51;;;;;;;4.78;1.60;;;;;;;9.52;nan;102531.06;10314349;28;20039;-86
2024/01/28 14:56:53;;;;;;;4.65;2.10;;;;;;;9.14;nan;102524.16;10308788;28;20039;-85
2024/01/28 15:01:53;;;;;;;3.80;1.75;;;;;;;8.58;nan;102543.44;10300648;28;20046;-83
2024/01/28 15:06:54;;;;;;;4.15;2.17;;;;;;;7.72;nan;102530.63;10275059;28;20046;-87
2024/01/28 15:11:54;;;;;;;4.20;1.73;;;;;;;7.14;nan;102541.56;10276303;28;20039;-86
2024/01/28 15:16:55;;;;;;;5.20;2.53;;;;;;;6.62;nan;102540.63;10321933;28;20097;-85
2024/01/28 15:21:55;;;;;;;7.45;1.83;;;;;;;6.23;nan;102557.22;10297844;28;20074;-87
2024/01/28 15:26:56;;;;;;;4.25;1.73;;;;;;;5.08;nan;102423.28;10314238;28;20049;-86
2024/01/28 15:31:56;;;;;;;4.97;1.40;;;;;;;5.50;nan;102537.59;10298565;28;20042;-87
2024/01/28 15:36:57;;;;;;;4.82;1.63;;;;;;;5.32;nan;102551.50;10290947;28;20045;-87
2024/01/28 15:41:58;;;;;;;5.13;1.98;;;;;;;5.18;nan;102555.81;10282557;28;20041;-86
2024/01/28 15:46:58;;;;;;;3.50;1.90;;;;;;;4.92;nan;102545.19;10284435;28;20050;-87
2024/01/28 15:51:59;;;;;;;6.05;2.50;;;;;;;4.77;nan;102557.84;10274820;28;20546;-76
2024/01/28 15:56:59;;;;;;;3.17;2.75;;;;;;;4.49;nan;102544.59;10301810;28;20065;-86
2024/01/28 16:02:00;;;;;;;3.10;1.98;;;;;;;4.23;nan;102545.63;10312004;28;20100;-87
2024/01/28 16:07:00;;;;;;;6.43;2.70;;;;;;;3.95;nan;102530.66;10308115;28;20065;-88
2024/01/28 16:12:01;;;;;;;5.15;2.95;;;;;;;3.86;nan;102531.69;10276151;28;20039;-87
2024/01/28 16:17:01;;;;;;;5.10;2.40;;;;;;;3.62;nan;102531.50;10278429;28;20050;-89
2024/01/28 16:22:02;;;;;;;4.38;2.88;;;;;;;3.54;nan;102545.09;10296836;28;20035;-89
2024/01/28 16:27:02;;;;;;;4.00;2.42;;;;;;;3.39;nan;102530.41;10286878;28;20039;-89
2024/01/28 16:32:03;;;;;;;3.72;2.88;;;;;;;3.20;nan;102507.03;10301073;28;20084;-87
2024/01/28 16:37:04;;;;;;;8.07;3.13;;;;;;;3.13;nan;102525.06;10299181;28;20547;-87
2024/01/28 16:42:04;;;;;;;8.90;2.88;;;;;;;3.06;nan;102530.31;10308390;28;20542;-87
2024/01/28 16:47:06;;;;;;;4.05;2.58;;;;;;;2.45;nan;102428.88;10293466;28;20030;-88
2024/01/28 16:52:07;;;;;;;4.32;2.50;;;;;;;2.91;nan;102494.69;10276371;28;20038;-88
2024/01/28 16:57:07;;;;;;;6.68;2.72;;;;;;;2.93;nan;102519.88;10294913;28;20049;-88
2024/01/28 17:02:08;;;;;;;4.22;2.45;;;;;;;2.46;nan;102468.66;10291493;28;20638;-88
2024/01/28 17:07:08;;;;;;;6.97;2.90;;;;;;;2.62;nan;102506.81;10291102;28;20499;-87
2024/01/28 17:12:09;;;;;;;7.30;2.78;;;;;;;2.65;nan;102504.75;10281889;28;20416;-88
2024/01/28 17:17:10;;;;;;;8.20;2.55;;;;;;;2.55;nan;102496.75;10290250;28;20046;-88
2024/01/28 17:22:11;;;;;;;3.78;2.53;;;;;;;2.60;nan;102499.81;10296336;28;20053;-89
2024/01/28 17:27:11;;;;;;;3.47;2.38;;;;;;;2.57;nan;102487.41;10286140;28;20046;-88
2024/01/28 17:32:11;;;;;;;6.72;3.05;;;;;;;2.49;nan;102481.91;10293684;28;20042;-86
2024/01/28 17:37:12;;;;;;;3.78;3.03;;;;;;;2.50;nan;102480.94;10301545;28;20564;-87
2024/01/28 17:42:14;;;;;;;3.50;2.10;;;;;;;2.47;nan;102483.94;10294977;28;20039;-87
2024/01/28 17:47:14;;;;;;;3.80;2.15;;;;;;;2.32;nan;102482.84;10307289;28;20069;-86
2024/01/28 17:52:15;;;;;;;7.93;2.90;;;;;;;2.26;nan;102475.34;10284786;28;20089;-88
2024/01/28 17:57:15;;;;;;;6.32;3.60;;;;;;;2.21;nan;102465.81;10297424;28;20030;-87
2024/01/28 18:02:16;;;;;;;4.18;3.25;;;;;;;2.16;nan;102476.28;10301281;28;20050;-87
2024/01/28 18:07:16;;;;;;;4.43;2.65;;;;;;;2.01;nan;102469.72;10314840;28;20047;-86
2024/01/28 18:12:17;;;;;;;5.20;2.77;;;;;;;2.01;nan;102469.72;10275982;28;20050;-87
2024/01/28 18:17:18;;;;;;;6.93;3.30;;;;;;;2.01;nan;102458.88;10277640;28;20088;-87
2024/01/28 18:22:19;;;;;;;5.32;2.88;;;;;;;2.06;nan;102453.78;10300571;28;20042;-88
2024/01/28 18:27:19;;;;;;;4.15;2.30;;;;;;;2.03;nan;102435.09;10326211;28;20050;-85
2024/01/28 18:32:20;;;;;;;6.25;3.22;;;;;;;2.02;nan;102441.53;10322295;28;20055;-88
2024/01/28 18:37:20;;;;;;;5.47;2.83;;;;;;;1.89;nan;102427.53;10301953;28;20088;-88
2024/01/28 18:42:21;;;;;;;9.50;3.10;;;;;;;1.88;nan;102444.84;10317939;28;20053;-84
2024/01/28 18:47:21;;;;;;;3.80;2.65;;;;;;;1.68;nan;102426.03;10320405;28;20384;-87
2024/01/28 18:52:22;;;;;;;6.88;3.30;;;;;;;1.68;nan;102452.34;10305532;28;20035;-87
2024/01/28 18:57:22;;;;;;;8.25;3.25;;;;;;;1.46;nan;102438.22;10323452;28;20045;-86
2024/01/28 19:02:23;;;;;;;7.22;3.05;;;;;;;1.34;nan;102443.00;10301165;28;20039;-87
2024/01/28 19:07:23;;;;;;;5.17;3.50;;;;;;;1.20;nan;102432.72;10321204;28;20034;-89
2024/01/28 19:12:24;;;;;;;4.97;2.92;;;;;;;1.12;nan;102443.50;10320549;28;20042;-75
2024/01/28 19:17:24;;;;;;;4.33;3.27;;;;;;;1.09;nan;102447.34;10311657;28;21428;-83
2024/01/28 19:22:25;;;;;;;5.40;3.13;;;;;;;0.94;nan;102430.75;10320178;28;20050;-84
2024/01/28 19:27:25;;;;;;;7.17;3.33;;;;;;;0.98;nan;102445.72;10318281;28;20034;-85
2024/01/28 19:32:25;;;;;;;5.72;3.78;;;;;;;0.86;nan;102430.66;10301520;28;20035;-86
2024/01/28 19:37:26;;;;;;;7.57;3.63;;;;;;;0.82;nan;102436.53;10293538;28;20043;-88
2024/01/28 19:42:28;;;;;;;6.63;3.70;;;;;;;0.79;nan;102445.84;10312646;28;20045;-86
2024/01/28 19:47:29;;;;;;;9.30;4.15;;;;;;;0.72;nan;102433.88;10292122;28;20093;-85
2024/01/28 19:52:29;;;;;;;9.65;3.55;;;;;;;0.34;nan;102376.16;10301539;28;20054;-86
2024/01/28 19:57:31;;;;;;;5.82;3.75;;;;;;;0.75;nan;102449.84;10286762;28;20526;-85
2024/01/28 20:02:31;;;;;;;6.15;3.53;;;;;;;0.65;nan;102427.38;10288450;28;20131;-86
2024/01/28 20:07:32;;;;;;;7.88;3.97;;;;;;;0.69;nan;102429.63;10291542;28;20464;-79
2024/01/28 20:12:38;;;;;;;6.15;3.45;;;;;;;0.67;nan;102433.47;10302920;28;22336;-83
2024/01/28 20:17:38;;;;;;;;;;;;;;;0.74;nan;102432.72;10318289;28;20239;-83
2024/01/28 20:22:39;;;;;;;5.84;4.28;;;;;;;0.69;nan;102424.19;10304154;28;19922;-83
2024/01/28 20:27:40;;;;;;;7.40;3.95;;;;;;;0.77;nan;102426.16;10285840;28;20035;-82
2024/01/28 20:32:41;;;;;;;8.70;4.47;;;;;;;0.94;nan;102436.16;10295927;28;20042;-85
2024/01/28 20:37:41;;;;;;;8.75;4.18;;;;;;;1.00;nan;102422.00;10313433;28;20106;-84
2024/01/28 20:42:45;;;;;;;6.03;4.03;;;;;;;1.07;nan;102414.09;10316281;28;20046;-82
2024/01/28 20:47:46;;;;;;;6.38;4.00;;;;;;;1.13;nan;102424.31;10297209;28;20048;-82
2024/01/28 20:52:46;;;;;;;4.85;3.22;;;;;;;1.12;nan;102397.38;10287551;28;20039;-81
2024/01/28 20:57:47;;;;;;;7.75;3.92;;;;;;;1.27;nan;102412.09;10273555;28;20059;-82
2024/01/28 21:02:47;;;;;;;5.05;3.50;;;;;;;1.42;nan;102421.38;10289993;28;20046;-82
2024/01/28 21:07:48;;;;;;;5.43;3.83;;;;;;;1.53;nan;102417.59;10295472;28;20059;-81
2024/01/28 21:12:50;;;;;;;6.78;3.80;;;;;;;1.64;nan;102416.50;10300005;28;20050;-82
2024/01/28 21:17:53;;;;;;;5.85;3.35;;;;;;;1.76;nan;102423.38;10289711;28;20034;-80
2024/01/28 21:22:54;;;;;;;7.10;3.85;;;;;;;1.80;nan;102419.34;10302550;28;20053;-82
2024/01/28 21:27:54;;;;;;;5.70;3.08;;;;;;;1.91;nan;102406.50;10293202;28;20035;-82
2024/01/28 21:32:55;;;;;;;5.05;3.35;;;;;;;2.07;nan;102398.47;10260162;28;20035;-83
2024/01/28 21:37:56;;;;;;;7.13;3.30;;;;;;;2.19;nan;102397.19;10300801;28;20046;-82
2024/01/28 21:42:56;;;;;;;6.32;3.38;;;;;;;2.26;nan;102369.34;10292854;28;20051;-82
2024/01/28 21:47:57;;;;;;;6.90;3.72;;;;;;;2.52;nan;102370.16;10279880;28;20069;-83
2024/01/28 21:52:57;;;;;;;6.88;3.20;;;;;;;2.76;nan;102366.63;10319676;28;20046;-81
2024/01/28 21:57:58;;;;;;;7.75;3.25;;;;;;;2.86;nan;102380.09;10282035;28;20085;-80
2024/01/28 22:02:58;;;;;;;7.78;3.90;;;;;;;2.91;nan;102385.88;10318797;28;20050;-81
2024/01/28 22:07:59;;;;;;;7.47;3.45;;;;;;;2.93;nan;102378.41;10323026;28;20042;-82
2024/01/28 22:13:00;;;;;;;6.15;3.67;;;;;;;2.86;nan;102344.72;10322530;28;20058;-82
2024/01/28 22:18:00;;;;;;;4.88;3.13;;;;;;;2.85;nan;102358.50;10322061;28;20041;-82
2024/01/28 22:23:01;;;;;;;11.73;4.47;;;;;;;2.81;nan;102374.28;10305556;28;20038;-83
2024/01/28 22:28:02;;;;;;;5.57;3.42;;;;;;;2.79;nan;102373.59;10288350;28;20045;-83
2024/01/28 22:33:03;;;;;;;5.45;3.03;;;;;;;2.85;nan;102391.97;10324531;28;20046;-82
2024/01/28 22:38:04;;;;;;;6.97;3.30;;;;;;;2.85;nan;102391.97;10323210;28;20093;-82
2024/01/28 22:43:04;;;;;;;7.47;3.35;;;;;;;2.78;nan;102394.50;10321357;28;20082;-83
2024/01/28 22:48:06;;;;;;;7.75;3.25;;;;;;;2.52;nan;102363.84;10316608;28;20034;-84
2024/01/28 22:53:06;;;;;;;5.65;3.40;;;;;;;2.57;nan;102400.41;10303265;28;20070;-81
2024/01/28 22:58:07;;;;;;;5.53;3.58;;;;;;;2.46;nan;102381.69;10321600;28;20113;-82
2024/01/28 23:03:07;;;;;;;5.05;3.67;;;;;;;2.46;nan;102384.41;10310429;28;20058;-82
2024/01/28 23:08:07;;;;;;;6.00;3.50;;;;;;;2.25;nan;102340.47;10317629;28;20047;-82
2024/01/28 23:13:09;;;;;;;7.55;3.55;;;;;;;2.37;nan;102375.31;10318769;28;20043;-82
2024/01/28 23:18:09;;;;;;;6.47;3.38;;;;;;;2.22;nan;102357.94;10317874;28;20057;-83
2024/01/28 23:23:10;;;;;;;4.18;2.83;;;;;;;2.24;nan;102377.66;10318281;28;20049;-82